createdAt,value
2023-04-16T00:01:55.957Z,7.43
2023-04-16T00:04:22.955Z,9.93
2023-04-16T00:06:49.947Z,8.23
2023-04-16T00:09:16.590Z,9.75
2023-04-16T00:11:43.247Z,5.95
2023-04-16T00:14:09.961Z,8.88
2023-04-16T00:16:36.774Z,9.73
2023-04-16T00:19:03.514Z,6.72
2023-04-16T00:21:31.074Z,12.57
2023-04-16T00:23:57.947Z,10.07
2023-04-16T00:26:24.614Z,9.90
2023-04-16T00:28:51.337Z,9.23
2023-04-16T00:31:18.086Z,5.13
2023-04-16T00:33:44.820Z,12.20
2023-04-16T00:36:11.553Z,8.07
2023-04-16T00:38:38.287Z,8.32
2023-04-16T00:41:05.032Z,11.18
2023-04-16T00:43:31.751Z,6.72
2023-04-16T00:45:58.924Z,10.77
2023-04-16T00:48:28.014Z,10.65
2023-04-16T00:50:55.509Z,6.30
2023-04-16T00:53:22.379Z,7.38
2023-04-16T00:55:49.146Z,9.10
2023-04-16T00:58:16.493Z,12.65
2023-04-16T01:00:43.163Z,9.88
2023-04-16T01:03:10.509Z,9.07
2023-04-16T01:05:37.462Z,12.02
2023-04-16T01:08:04.246Z,12.32
2023-04-16T01:10:31.443Z,8.30
2023-04-16T01:12:58.192Z,12.63
2023-04-16T01:15:24.954Z,9.23
2023-04-16T01:17:51.724Z,10.27
2023-04-16T01:20:18.586Z,12.13
2023-04-16T01:22:45.257Z,10.60
2023-04-16T01:25:15.957Z,15.02
2023-04-16T01:27:42.762Z,10.10
2023-04-16T01:30:09.855Z,15.02
2023-04-16T01:32:53.040Z,7.60
2023-04-16T01:35:19.790Z,11.05
2023-04-16T01:37:46.622Z,11.80
2023-04-16T01:40:13.461Z,12.80
2023-04-16T01:42:40.226Z,9.52
2023-04-16T01:45:07.685Z,9.98
2023-04-16T01:47:34.413Z,9.32
2023-04-16T01:50:01.852Z,11.93
2023-04-16T01:52:29.658Z,11.43
2023-04-16T01:54:56.907Z,12.68
2023-04-16T01:57:23.602Z,11.75
2023-04-16T01:59:50.303Z,9.32
2023-04-16T02:02:17.490Z,10.85
2023-04-16T02:04:45.896Z,9.02
2023-04-16T02:07:12.911Z,9.15
2023-04-16T02:09:41.254Z,11.02
2023-04-16T02:12:11.184Z,19.27
2023-04-16T02:14:38.085Z,12.20
2023-04-16T02:17:04.890Z,9.98
2023-04-16T02:19:41.787Z,9.45
2023-04-16T02:22:09.863Z,23.48
2023-04-16T02:24:36.589Z,15.20
2023-04-16T02:27:07.191Z,13.30
2023-04-16T02:29:33.998Z,13.15
2023-04-16T02:32:08.885Z,15.25
2023-04-16T02:34:36.392Z,10.85
2023-04-16T02:37:03.172Z,13.45
2023-04-16T02:39:29.876Z,16.85
2023-04-16T02:41:57.849Z,10.43
2023-04-16T02:44:24.619Z,14.57
2023-04-16T02:46:51.328Z,10.55
2023-04-16T02:49:18.111Z,14.10
2023-04-16T02:51:44.881Z,12.32
2023-04-16T02:54:11.663Z,13.88
2023-04-16T02:56:38.371Z,16.77
2023-04-16T02:59:05.459Z,15.43
2023-04-16T03:01:32.520Z,10.07
2023-04-16T03:03:59.790Z,18.50
2023-04-16T03:06:27.012Z,17.40
2023-04-16T03:08:54.005Z,14.30
2023-04-16T03:11:20.836Z,10.27
2023-04-16T03:13:47.550Z,14.95
2023-04-16T03:16:14.372Z,9.80
2023-04-16T03:18:41.194Z,20.23
2023-04-16T03:21:07.918Z,11.18
2023-04-16T03:23:35.866Z,20.13
2023-04-16T03:26:02.663Z,14.40
2023-04-16T03:28:29.648Z,12.15
2023-04-16T03:30:56.477Z,19.20
2023-04-16T03:33:23.449Z,16.30
2023-04-16T03:35:58.254Z,12.95
2023-04-16T03:38:28.422Z,14.90
2023-04-16T03:40:57.140Z,19.77
2023-04-16T03:43:23.824Z,11.98
2023-04-16T03:45:50.953Z,13.88
2023-04-16T03:48:20.709Z,20.10
2023-04-16T03:50:48.076Z,17.40
2023-04-16T03:53:16.783Z,15.63
2023-04-16T03:55:43.551Z,12.95
2023-04-16T03:58:10.997Z,17.50
2023-04-16T04:00:37.810Z,17.48
2023-04-16T04:03:12.602Z,14.13
2023-04-16T04:05:41.285Z,16.10
2023-04-16T04:08:11.160Z,20.63
2023-04-16T04:10:38.562Z,13.23
2023-04-16T04:13:07.562Z,12.57
2023-04-16T04:15:35.348Z,14.65
2023-04-16T04:18:02.105Z,14.32
2023-04-16T04:20:28.859Z,12.68
2023-04-16T04:22:55.760Z,12.90
2023-04-16T04:25:25.337Z,14.52
2023-04-16T04:27:52.228Z,12.43
2023-04-16T04:30:19.041Z,21.35
2023-04-16T04:32:46.171Z,19.08
2023-04-16T04:35:13.452Z,14.88
2023-04-16T04:37:41.589Z,11.65
2023-04-16T04:40:19.889Z,12.23
2023-04-16T04:42:46.893Z,14.98
2023-04-16T04:45:13.841Z,14.90
2023-04-16T04:47:41.697Z,12.20
2023-04-16T04:50:09.028Z,15.18
2023-04-16T04:52:36.299Z,11.65
2023-04-16T04:55:03.664Z,17.58
2023-04-16T04:57:30.742Z,10.32
2023-04-16T04:59:59.325Z,15.25
2023-04-16T05:02:28.738Z,14.45
2023-04-16T05:04:55.649Z,13.20
2023-04-16T05:07:22.519Z,16.08
2023-04-16T05:09:49.230Z,13.18
2023-04-16T05:12:16.476Z,15.45
2023-04-16T05:14:43.203Z,18.67
2023-04-16T05:17:10.915Z,18.90
2023-04-16T05:19:37.658Z,12.35
2023-04-16T05:22:04.368Z,17.23
2023-04-16T05:24:31.051Z,12.77
2023-04-16T05:26:58.000Z,14.88
2023-04-16T05:29:24.917Z,11.10
2023-04-16T05:31:51.646Z,11.13
2023-04-16T05:34:18.341Z,12.70
2023-04-16T05:36:45.812Z,16.75
2023-04-16T05:39:12.502Z,13.80
2023-04-16T05:41:39.160Z,12.80
2023-04-16T05:44:05.938Z,17.27
2023-04-16T05:46:32.688Z,15.52
2023-04-16T05:48:59.486Z,12.02
2023-04-16T05:51:27.591Z,14.40
2023-04-16T05:53:54.317Z,17.90
2023-04-16T05:56:21.882Z,10.05
2023-04-16T05:58:48.586Z,14.40
2023-04-16T06:01:15.412Z,13.57
2023-04-16T06:03:42.259Z,14.88
2023-04-16T06:06:09.206Z,12.45
2023-04-16T06:08:35.947Z,12.52
2023-04-16T06:11:03.261Z,14.15
2023-04-16T06:13:30.005Z,14.48
2023-04-16T06:15:56.823Z,14.95
2023-04-16T06:18:23.707Z,16.60
2023-04-16T06:20:50.734Z,11.25
2023-04-16T06:23:17.507Z,14.77
2023-04-16T06:25:44.205Z,13.00
2023-04-16T06:28:10.924Z,15.07
2023-04-16T06:30:37.659Z,13.10
2023-04-16T06:33:05.454Z,14.85
2023-04-16T06:35:32.219Z,17.63
2023-04-16T06:37:58.923Z,14.10
2023-04-16T06:40:25.834Z,16.63
2023-04-16T06:42:52.580Z,18.42
2023-04-16T06:45:19.337Z,17.95
2023-04-16T06:47:46.245Z,23.83
2023-04-16T06:50:13.000Z,21.92
2023-04-16T06:52:39.725Z,21.23
2023-04-16T06:55:09.664Z,14.60
2023-04-16T06:57:37.612Z,17.02
2023-04-16T07:00:05.261Z,19.33
2023-04-16T07:02:32.084Z,22.92
2023-04-16T07:04:58.900Z,25.08
2023-04-16T07:07:25.821Z,18.98
2023-04-16T07:09:52.476Z,26.50
2023-04-16T07:12:22.008Z,28.05
2023-04-16T07:14:49.495Z,26.20
2023-04-16T07:17:16.248Z,29.52
2023-04-16T07:19:42.973Z,24.52
2023-04-16T07:22:09.648Z,21.17
2023-04-16T07:24:36.497Z,30.15
2023-04-16T07:27:03.260Z,36.40
2023-04-16T07:29:29.944Z,32.45
2023-04-16T07:31:57.406Z,26.92
2023-04-16T07:34:24.138Z,26.67
2023-04-16T07:36:50.843Z,21.88
2023-04-16T07:39:17.518Z,32.92
2023-04-16T07:41:44.346Z,35.65
2023-04-16T07:44:11.132Z,37.92
2023-04-16T07:46:46.436Z,31.77
2023-04-16T07:49:14.040Z,35.15
2023-04-16T07:51:40.846Z,34.15
2023-04-16T07:54:07.604Z,32.08
2023-04-16T07:56:34.361Z,27.00
2023-04-16T07:59:14.369Z,32.15
2023-04-16T08:01:45.982Z,33.63
2023-04-16T08:04:12.729Z,32.90
2023-04-16T08:06:39.607Z,26.08
2023-04-16T08:09:06.351Z,20.52
2023-04-16T08:11:33.205Z,28.90
2023-04-16T08:13:59.953Z,24.48
2023-04-16T08:16:26.743Z,25.63
2023-04-16T08:18:53.512Z,20.73
2023-04-16T08:21:20.365Z,27.13
2023-04-16T08:23:47.134Z,24.30
2023-04-16T08:26:13.959Z,29.08
2023-04-16T08:28:40.704Z,28.15
2023-04-16T08:31:07.436Z,26.85
2023-04-16T08:33:34.164Z,20.85
2023-04-16T08:36:00.932Z,32.40
2023-04-16T08:38:27.631Z,20.38
2023-04-16T08:40:55.508Z,25.92
2023-04-16T08:43:24.033Z,25.38
2023-04-16T08:45:51.823Z,25.90
2023-04-16T08:48:20.633Z,35.10
2023-04-16T08:50:50.306Z,25.35
2023-04-16T08:53:19.585Z,32.17
2023-04-16T08:55:50.436Z,30.42
2023-04-16T08:58:22.586Z,22.70
2023-04-16T09:00:49.646Z,29.30
2023-04-16T09:03:16.635Z,27.80
2023-04-16T09:05:44.223Z,31.63
2023-04-16T09:08:11.021Z,32.88
2023-04-16T09:10:37.820Z,28.77
2023-04-16T09:13:04.657Z,35.28
2023-04-16T09:15:34.610Z,36.05
2023-04-16T09:18:01.819Z,30.75
2023-04-16T09:20:28.640Z,36.15
2023-04-16T09:22:57.007Z,26.40
2023-04-16T09:25:25.174Z,27.17
2023-04-16T09:27:52.076Z,29.25
2023-04-16T09:30:24.523Z,22.55
2023-04-16T09:32:53.482Z,30.88
2023-04-16T09:35:20.721Z,31.65
2023-04-16T09:37:57.891Z,29.88
2023-04-16T09:40:27.144Z,35.00
2023-04-16T09:42:57.920Z,34.58
2023-04-16T09:45:24.764Z,25.02
2023-04-16T09:47:51.810Z,33.13
2023-04-16T09:50:20.246Z,24.80
2023-04-16T09:52:51.399Z,29.67
2023-04-16T09:55:24.063Z,21.63
2023-04-16T09:58:00.297Z,27.42
2023-04-16T10:00:30.287Z,30.60
2023-04-16T10:03:05.734Z,33.33
2023-04-16T10:05:32.584Z,25.52
2023-04-16T10:08:02.094Z,28.15
2023-04-16T10:10:29.926Z,28.60
2023-04-16T10:12:57.813Z,24.88
2023-04-16T10:15:24.697Z,23.38
2023-04-16T10:17:51.543Z,26.13
2023-04-16T10:20:18.512Z,29.38
2023-04-16T10:22:45.283Z,24.27
2023-04-16T10:25:12.487Z,28.27
2023-04-16T10:27:40.209Z,28.10
2023-04-16T10:30:08.938Z,32.25
2023-04-16T10:32:36.805Z,29.85
2023-04-16T10:35:04.670Z,26.20
2023-04-16T10:37:32.463Z,25.73
2023-04-16T10:40:02.664Z,33.58
2023-04-16T10:42:29.516Z,29.60
2023-04-16T10:45:00.247Z,29.67
2023-04-16T10:47:29.211Z,23.70
2023-04-16T10:49:56.111Z,25.80
2023-04-16T10:52:24.994Z,27.58
2023-04-16T10:54:52.967Z,25.30
2023-04-16T10:57:20.584Z,26.48
2023-04-16T10:59:49.222Z,25.50
2023-04-16T11:02:19.373Z,25.92
2023-04-16T11:04:48.720Z,30.10
2023-04-16T11:07:32.470Z,26.83
2023-04-16T11:10:07.193Z,27.33
2023-04-16T11:13:03.637Z,25.33
2023-04-16T11:15:33.343Z,26.60
2023-04-16T11:18:00.396Z,26.98
2023-04-16T11:20:28.515Z,28.92
2023-04-16T11:22:57.358Z,24.98
2023-04-16T11:25:30.391Z,31.77
2023-04-16T11:27:59.118Z,28.63
2023-04-16T11:30:31.954Z,28.67
2023-04-16T11:32:58.742Z,29.02
2023-04-16T11:35:25.531Z,30.50
2023-04-16T11:37:58.742Z,32.65
2023-04-16T11:40:30.410Z,23.88
2023-04-16T11:43:13.679Z,29.05
2023-04-16T11:45:57.618Z,27.58
2023-04-16T11:48:24.557Z,27.70
2023-04-16T11:50:58.092Z,23.73
2023-04-16T11:53:25.160Z,22.25
2023-04-16T11:55:52.013Z,25.60
2023-04-16T11:58:20.105Z,25.65
2023-04-16T12:00:47.597Z,23.98
2023-04-16T12:03:14.657Z,18.10
2023-04-16T12:05:41.537Z,18.70
2023-04-16T12:08:11.170Z,22.83
2023-04-16T12:10:54.156Z,22.63
2023-04-16T12:13:20.869Z,20.52
2023-04-16T12:15:55.912Z,22.25
2023-04-16T12:18:27.098Z,23.48
2023-04-16T12:20:54.075Z,20.30
2023-04-16T12:23:26.403Z,21.23
2023-04-16T12:25:53.723Z,26.92
2023-04-16T12:28:38.318Z,19.98
2023-04-16T12:31:05.993Z,26.27
2023-04-16T12:33:32.889Z,15.98
2023-04-16T12:35:59.808Z,17.67
2023-04-16T12:38:27.486Z,19.00
2023-04-16T12:40:57.007Z,19.13
2023-04-16T12:43:24.865Z,31.80
2023-04-16T12:45:51.559Z,22.77
2023-04-16T12:48:18.335Z,23.50
2023-04-16T12:50:45.088Z,20.95
2023-04-16T12:53:12.035Z,21.48
2023-04-16T12:55:38.810Z,15.75
2023-04-16T12:58:05.710Z,15.95
2023-04-16T13:00:32.763Z,22.15
2023-04-16T13:02:59.680Z,18.38
2023-04-16T13:05:27.166Z,20.55
2023-04-16T13:07:54.163Z,21.80
2023-04-16T13:10:21.999Z,21.52
2023-04-16T13:12:49.328Z,18.88
2023-04-16T13:15:16.096Z,17.05
2023-04-16T13:17:42.918Z,19.33
2023-04-16T13:20:10.511Z,18.92
2023-04-16T13:22:37.532Z,18.35
2023-04-16T13:25:04.883Z,16.67
2023-04-16T13:27:32.535Z,21.23
2023-04-16T13:29:59.338Z,18.05
2023-04-16T13:32:26.180Z,15.98
2023-04-16T13:34:52.871Z,17.30
2023-04-16T13:37:19.715Z,17.05
2023-04-16T13:39:47.299Z,19.00
2023-04-16T13:42:14.077Z,19.40
2023-04-16T13:44:41.032Z,17.38
2023-04-16T13:47:08.070Z,22.73
2023-04-16T13:49:35.775Z,20.20
2023-04-16T13:52:03.192Z,21.40
2023-04-16T13:54:29.979Z,18.40
2023-04-16T13:56:56.794Z,16.90
2023-04-16T13:59:23.586Z,17.77
2023-04-16T14:01:50.486Z,17.95
2023-04-16T14:04:17.273Z,16.55
2023-04-16T14:06:43.986Z,17.17
2023-04-16T14:09:11.157Z,21.48
2023-04-16T14:11:38.132Z,16.75
2023-04-16T14:14:05.017Z,16.67
2023-04-16T14:16:31.741Z,18.30
2023-04-16T14:18:58.455Z,14.95
2023-04-16T14:21:26.621Z,17.35
2023-04-16T14:23:53.323Z,15.18
2023-04-16T14:26:19.988Z,19.10
2023-04-16T14:28:46.915Z,22.63
2023-04-16T14:31:13.711Z,16.38
2023-04-16T14:33:40.857Z,15.75
2023-04-16T14:36:07.756Z,17.85
2023-04-16T14:38:34.526Z,18.15
2023-04-16T14:41:01.292Z,18.90
2023-04-16T14:43:27.982Z,16.60
2023-04-16T14:45:54.730Z,17.02
2023-04-16T14:48:22.068Z,16.67
2023-04-16T14:50:48.878Z,15.02
2023-04-16T14:53:15.901Z,17.35
2023-04-16T14:55:42.672Z,18.73
2023-04-16T14:58:10.788Z,18.33
2023-04-16T15:00:37.828Z,20.77
2023-04-16T15:03:05.561Z,14.20
2023-04-16T15:05:32.695Z,20.45
2023-04-16T15:08:00.465Z,28.08
2023-04-16T15:10:27.486Z,19.95
2023-04-16T15:12:54.254Z,17.08
2023-04-16T15:15:21.243Z,18.30
2023-04-16T15:17:48.056Z,16.55
2023-04-16T15:20:15.220Z,17.90
2023-04-16T15:22:42.030Z,20.38
2023-04-16T15:25:09.195Z,19.42
2023-04-16T15:27:36.607Z,19.02
2023-04-16T15:30:03.748Z,19.70
2023-04-16T15:32:31.347Z,21.60
2023-04-16T15:34:58.242Z,20.63
2023-04-16T15:37:24.892Z,18.30
2023-04-16T15:39:51.574Z,19.08
2023-04-16T15:42:18.278Z,16.73
2023-04-16T15:44:45.084Z,16.73
2023-04-16T15:47:11.781Z,16.25
2023-04-16T15:49:38.584Z,16.52
2023-04-16T15:52:05.597Z,18.55
2023-04-16T15:54:32.435Z,16.92
2023-04-16T15:56:59.311Z,15.23
2023-04-16T15:59:26.900Z,15.15
2023-04-16T16:01:53.789Z,16.23
2023-04-16T16:04:22.750Z,15.38
2023-04-16T16:06:50.375Z,15.52
2023-04-16T16:09:17.263Z,15.70
2023-04-16T16:11:44.201Z,16.48
2023-04-16T16:14:10.977Z,18.40
2023-04-16T16:16:37.896Z,16.67
2023-04-16T16:19:04.727Z,17.98
2023-04-16T16:21:32.524Z,19.92
2023-04-16T16:23:59.335Z,16.90
2023-04-16T16:26:26.038Z,15.55
2023-04-16T16:28:52.789Z,13.65
2023-04-16T16:31:19.569Z,23.30
2023-04-16T16:33:46.328Z,21.83
2023-04-16T16:36:13.003Z,24.45
2023-04-16T16:38:40.923Z,19.85
2023-04-16T16:41:07.824Z,25.60
2023-04-16T16:43:36.249Z,24.13
2023-04-16T16:46:03.011Z,21.67
2023-04-16T16:48:29.709Z,23.48
2023-04-16T16:50:56.391Z,20.13
2023-04-16T16:53:23.150Z,21.98
2023-04-16T16:55:49.946Z,18.30
2023-04-16T16:58:17.055Z,18.70
2023-04-16T17:00:43.917Z,18.95
2023-04-16T17:03:11.125Z,19.25
2023-04-16T17:05:38.181Z,21.08
2023-04-16T17:08:06.518Z,19.33
2023-04-16T17:10:33.223Z,16.58
2023-04-16T17:12:59.945Z,17.92
2023-04-16T17:15:26.855Z,17.25
2023-04-16T17:17:53.886Z,19.00
2023-04-16T17:20:20.843Z,17.60
2023-04-16T17:22:47.612Z,15.45
2023-04-16T17:25:14.723Z,20.25
2023-04-16T17:27:41.588Z,21.58
2023-04-16T17:30:08.816Z,18.02
2023-04-16T17:32:35.712Z,21.13
2023-04-16T17:35:04.239Z,17.13
2023-04-16T17:37:31.356Z,21.85
2023-04-16T17:39:58.140Z,21.85
2023-04-16T17:42:24.894Z,22.77
2023-04-16T17:44:51.879Z,22.92
2023-04-16T17:47:18.604Z,16.77
2023-04-16T17:49:45.689Z,21.42
2023-04-16T17:52:12.396Z,17.50
2023-04-16T17:54:39.159Z,19.35
2023-04-16T17:57:05.872Z,20.17
2023-04-16T17:59:33.167Z,18.38
2023-04-16T18:01:59.979Z,20.48
2023-04-16T18:04:26.938Z,20.83
2023-04-16T18:06:53.865Z,23.55
2023-04-16T18:09:20.616Z,26.00
2023-04-16T18:11:47.357Z,16.58
2023-04-16T18:14:16.888Z,19.15
2023-04-16T18:16:43.842Z,16.33
2023-04-16T18:19:11.316Z,23.27
2023-04-16T18:21:38.068Z,24.25
2023-04-16T18:24:05.337Z,26.15
2023-04-16T18:26:35.690Z,22.27
2023-04-16T18:29:03.951Z,23.55
2023-04-16T18:31:30.908Z,19.13
2023-04-16T18:33:58.552Z,19.67
2023-04-16T18:36:26.783Z,19.27
2023-04-16T18:39:00.969Z,18.40
2023-04-16T18:41:29.005Z,17.50
2023-04-16T18:43:55.909Z,19.83
2023-04-16T18:46:22.825Z,22.95
2023-04-16T18:48:49.683Z,20.08
2023-04-16T18:51:16.815Z,20.55
2023-04-16T18:53:45.601Z,20.08
2023-04-16T18:56:12.821Z,24.20
2023-04-16T18:58:39.587Z,26.77
2023-04-16T19:01:11.029Z,23.80
2023-04-16T19:03:38.461Z,13.10
2023-04-16T19:06:06.104Z,19.35
2023-04-16T19:08:33.055Z,17.67
2023-04-16T19:10:59.923Z,16.95
2023-04-16T19:13:26.750Z,16.83
2023-04-16T19:16:01.419Z,18.30
2023-04-16T19:18:28.352Z,17.65
2023-04-16T19:21:01.335Z,20.90
2023-04-16T19:23:28.661Z,21.30
2023-04-16T19:25:58.618Z,19.98
2023-04-16T19:28:25.718Z,17.05
2023-04-16T19:30:55.947Z,17.52
2023-04-16T19:33:22.821Z,18.42
2023-04-16T19:35:49.597Z,21.75
2023-04-16T19:38:16.396Z,24.67
2023-04-16T19:40:48.078Z,16.52
2023-04-16T19:43:15.414Z,21.63
2023-04-16T19:45:46.491Z,21.50
2023-04-16T19:48:13.814Z,21.87
2023-04-16T19:50:41.871Z,22.70
2023-04-16T19:53:09.018Z,21.10
2023-04-16T19:55:36.466Z,20.17
2023-04-16T19:58:06.487Z,20.83
2023-04-16T20:00:35.114Z,24.15
2023-04-16T20:03:01.994Z,22.15
2023-04-16T20:05:29.514Z,21.70
2023-04-16T20:07:56.674Z,19.63
2023-04-16T20:10:24.123Z,21.70
2023-04-16T20:12:51.435Z,20.15
2023-04-16T20:15:18.929Z,18.42
2023-04-16T20:17:45.867Z,21.85
2023-04-16T20:20:15.056Z,23.55
2023-04-16T20:22:42.413Z,20.35
2023-04-16T20:25:09.975Z,21.92
2023-04-16T20:27:36.732Z,19.35
2023-04-16T20:30:05.408Z,19.10
2023-04-16T20:32:32.317Z,23.98
2023-04-16T20:34:59.702Z,18.85
2023-04-16T20:37:28.724Z,15.52
2023-04-16T20:39:56.065Z,24.92
2023-04-16T20:42:23.099Z,22.15
2023-04-16T20:44:56.502Z,23.25
2023-04-16T20:47:23.798Z,18.67
2023-04-16T20:49:52.786Z,19.65
2023-04-16T20:52:19.850Z,19.42
2023-04-16T20:54:47.133Z,19.92
2023-04-16T20:57:13.838Z,22.23
2023-04-16T20:59:40.574Z,23.52
2023-04-16T21:02:07.910Z,23.45
2023-04-16T21:04:34.929Z,26.77
2023-04-16T21:07:03.943Z,20.38
2023-04-16T21:09:31.318Z,17.98
2023-04-16T21:11:58.066Z,19.40
2023-04-16T21:14:27.651Z,19.83
2023-04-16T21:16:54.825Z,18.42
2023-04-16T21:19:22.436Z,20.20
2023-04-16T21:21:49.210Z,20.60
2023-04-16T21:24:16.103Z,21.83
2023-04-16T21:26:42.851Z,16.45
2023-04-16T21:29:09.709Z,23.00
2023-04-16T21:31:36.745Z,19.67
2023-04-16T21:34:03.522Z,20.42
2023-04-16T21:36:31.984Z,19.27
2023-04-16T21:38:58.721Z,23.40
2023-04-16T21:41:25.606Z,22.65
2023-04-16T21:43:52.295Z,21.20
2023-04-16T21:46:19.051Z,19.45
2023-04-16T21:48:46.170Z,19.63
2023-04-16T21:51:14.007Z,20.90
2023-04-16T21:53:40.771Z,23.92
2023-04-16T21:56:07.779Z,20.92
2023-04-16T21:58:34.468Z,26.17
2023-04-16T22:01:01.410Z,27.40
2023-04-16T22:03:31.162Z,20.02
2023-04-16T22:06:01.968Z,26.10
2023-04-16T22:08:30.210Z,16.67
2023-04-16T22:11:02.147Z,22.15
2023-04-16T22:13:32.163Z,22.17
2023-04-16T22:16:02.258Z,27.48
2023-04-16T22:18:32.746Z,30.08
2023-04-16T22:20:59.848Z,23.55
2023-04-16T22:23:26.581Z,30.65
2023-04-16T22:25:55.489Z,27.67
2023-04-16T22:28:22.548Z,24.58
2023-04-16T22:30:49.422Z,24.90
2023-04-16T22:33:16.274Z,30.25
2023-04-16T22:35:43.017Z,29.77
2023-04-16T22:38:10.323Z,31.38
2023-04-16T22:40:37.143Z,33.60
2023-04-16T22:43:04.328Z,34.25
2023-04-16T22:45:31.143Z,32.75
2023-04-16T22:47:57.882Z,25.98
2023-04-16T22:50:24.580Z,36.75
2023-04-16T22:52:51.288Z,28.83
2023-04-16T22:55:18.213Z,33.17
2023-04-16T22:57:44.889Z,35.60
2023-04-16T23:00:16.161Z,28.55
2023-04-16T23:02:43.806Z,38.00
2023-04-16T23:05:10.873Z,25.67
2023-04-16T23:07:37.587Z,32.53
2023-04-16T23:10:04.907Z,37.50
2023-04-16T23:12:32.186Z,35.35
2023-04-16T23:15:00.491Z,33.17
2023-04-16T23:17:28.034Z,22.45
2023-04-16T23:19:54.943Z,37.55
2023-04-16T23:22:21.680Z,38.88
2023-04-16T23:24:49.454Z,35.17
2023-04-16T23:27:16.110Z,36.50
2023-04-16T23:29:42.840Z,33.28
2023-04-16T23:32:09.590Z,36.17
2023-04-16T23:34:36.242Z,35.15
2023-04-16T23:37:02.989Z,41.47
2023-04-16T23:39:29.657Z,35.67
2023-04-16T23:41:57.501Z,32.78
2023-04-16T23:44:24.283Z,41.63
2023-04-16T23:46:51.022Z,39.58
2023-04-16T23:49:17.755Z,35.22
2023-04-16T23:51:44.419Z,31.23
2023-04-16T23:54:11.153Z,38.83
2023-04-16T23:56:37.837Z,20.77
2023-04-16T23:59:04.645Z,42.72
